Time;durP1;ratioP1;P1;durP2;ratioP2;P2;SDS_P1;SDS_P2;PMS_P1;PMS_P2;Temp;Humidity;BMP_temperature;BMP_pressure;BME280_temperature;BME280_humidity;BME280_pressure;Samples;Min_cycle;Max_cycle;Signal;HPM_P1;HPM_P2
2022/03/14 00:01:47;;;;;;;1.05;0.50;;;11.40;99.90;;;;;;5051298;28;20064;-63
2022/03/14 00:04:13;;;;;;;0.73;0.45;;;11.40;99.90;;;;;;5050976;28;20711;-62
2022/03/14 00:06:38;;;;;;;1.02;0.50;;;11.30;99.90;;;;;;5051016;28;20711;-62
2022/03/14 00:09:07;;;;;;;2.63;0.40;;;11.30;99.90;;;;;;5049769;28;20072;-62
2022/03/14 00:11:35;;;;;;;2.97;0.82;;;11.30;99.90;;;;;;5051019;28;20064;-62
2022/03/14 00:14:05;;;;;;;0.98;0.50;;;11.20;99.90;;;;;;5048134;28;20045;-63
2022/03/14 00:16:32;;;;;;;1.00;0.70;;;11.20;99.90;;;;;;5051486;28;20028;-62
2022/03/14 00:18:58;;;;;;;1.15;0.65;;;11.10;99.90;;;;;;5049586;28;20064;-63
2022/03/14 00:21:26;;;;;;;1.67;0.50;;;11.10;99.90;;;;;;5050998;28;20048;-61
2022/03/14 00:23:53;;;;;;;1.73;0.80;;;11.10;99.90;;;;;;5046822;28;20095;-62
2022/03/14 00:26:21;;;;;;;1.20;0.60;;;11.00;99.90;;;;;;5050824;28;20056;-62
2022/03/14 00:28:48;;;;;;;1.42;0.77;;;11.00;99.90;;;;;;5051135;28;20028;-62
2022/03/14 00:31:14;;;;;;;1.52;0.63;;;11.00;99.90;;;;;;5049937;28;20037;-62
2022/03/14 00:33:40;;;;;;;2.25;0.70;;;11.00;99.90;;;;;;5051059;28;20028;-62
2022/03/14 00:36:06;;;;;;;2.10;0.65;;;11.00;99.90;;;;;;5050596;28;20051;-64
2022/03/14 00:38:33;;;;;;;1.55;0.57;;;11.00;99.90;;;;;;5050297;28;20037;-61
2022/03/14 00:40:59;;;;;;;1.25;0.82;;;11.00;99.90;;;;;;5050064;28;20123;-64
2022/03/14 00:43:25;;;;;;;1.70;0.90;;;11.00;99.90;;;;;;5049274;28;20040;-62
2022/03/14 00:45:50;;;;;;;1.00;0.50;;;11.00;99.90;;;;;;5050746;28;20148;-62
2022/03/14 00:48:16;;;;;;;1.40;0.45;;;11.10;99.90;;;;;;5050081;28;20037;-63
2022/03/14 00:50:42;;;;;;;1.67;0.88;;;11.10;99.90;;;;;;5050227;28;20493;-62
2022/03/14 00:53:08;;;;;;;1.30;0.60;;;11.10;99.90;;;;;;5050032;28;20520;-62
2022/03/14 00:55:34;;;;;;;1.40;0.60;;;11.00;99.90;;;;;;5050426;28;20076;-63
2022/03/14 00:57:59;;;;;;;1.45;0.60;;;11.10;99.90;;;;;;5049596;28;20033;-64
2022/03/14 01:00:25;;;;;;;1.55;0.85;;;11.10;99.90;;;;;;5049482;28;20139;-62
2022/03/14 01:02:51;;;;;;;0.50;0.30;;;11.10;99.90;;;;;;5050485;28;20052;-63
2022/03/14 01:05:17;;;;;;;1.17;0.70;;;11.10;99.90;;;;;;5048305;28;20025;-62
2022/03/14 01:07:43;;;;;;;1.83;0.60;;;11.10;99.90;;;;;;5050203;28;20047;-62
2022/03/14 01:10:09;;;;;;;1.90;0.90;;;11.10;99.90;;;;;;5049603;28;20068;-62
2022/03/14 01:12:35;;;;;;;1.67;0.60;;;11.10;99.90;;;;;;5049923;28;20492;-62
2022/03/14 01:15:01;;;;;;;1.40;0.57;;;11.10;99.90;;;;;;5049308;28;20033;-62
2022/03/14 01:17:27;;;;;;;1.10;0.70;;;11.10;99.90;;;;;;5050037;28;20124;-62
2022/03/14 01:19:53;;;;;;;1.20;0.68;;;11.10;99.90;;;;;;5048417;28;20037;-62
2022/03/14 01:22:19;;;;;;;1.52;0.73;;;11.10;99.90;;;;;;5049543;28;20608;-62
2022/03/14 01:24:44;;;;;;;0.60;0.50;;;11.10;99.90;;;;;;5049195;28;20044;-61
2022/03/14 01:27:10;;;;;;;1.15;0.60;;;11.10;99.90;;;;;;5049711;28;20113;-62
2022/03/14 01:29:36;;;;;;;1.52;0.77;;;11.10;99.90;;;;;;5049926;28;20033;-62
2022/03/14 01:32:02;;;;;;;1.23;0.68;;;11.00;99.90;;;;;;5049059;28;20048;-63
2022/03/14 01:34:28;;;;;;;2.03;0.60;;;11.10;99.90;;;;;;5049688;28;20396;-61
2022/03/14 01:36:54;;;;;;;2.33;0.57;;;11.00;99.90;;;;;;5049702;28;20032;-61
2022/03/14 01:39:19;;;;;;;1.48;0.70;;;10.90;99.90;;;;;;5047140;28;20079;-63
2022/03/14 01:41:45;;;;;;;1.33;0.68;;;10.90;99.90;;;;;;5048925;28;20041;-63
2022/03/14 01:44:10;;;;;;;1.75;0.60;;;10.80;99.90;;;;;;5047859;28;20041;-61
2022/03/14 01:46:36;;;;;;;1.65;1.05;;;10.70;99.90;;;;;;5049283;28;20047;-62
2022/03/14 01:49:02;;;;;;;2.35;1.02;;;10.70;99.90;;;;;;5049203;28;20400;-64
2022/03/14 01:51:29;;;;;;;2.03;1.00;;;10.60;99.90;;;;;;5049258;28;20413;-60
2022/03/14 01:53:54;;;;;;;3.22;0.75;;;10.70;99.90;;;;;;5045757;28;20132;-61
2022/03/14 01:56:21;;;;;;;2.53;1.05;;;10.60;99.90;;;;;;5048808;28;20567;-61
2022/03/14 01:58:47;;;;;;;1.60;0.88;;;10.60;99.90;;;;;;5049479;28;20032;-61
2022/03/14 02:01:13;;;;;;;2.83;1.10;;;10.60;99.90;;;;;;5048786;28;20052;-63
2022/03/14 02:03:39;;;;;;;3.60;1.05;;;10.60;99.90;;;;;;5049338;28;20033;-61
2022/03/14 02:06:05;;;;;;;3.17;1.13;;;10.60;99.90;;;;;;5049536;28;20133;-61
2022/03/14 02:08:30;;;;;;;3.33;0.73;;;10.60;99.90;;;;;;5047796;28;20443;-63
2022/03/14 02:10:56;;;;;;;1.75;0.80;;;10.60;99.90;;;;;;5048801;28;20538;-63
2022/03/14 02:13:21;;;;;;;2.85;0.80;;;10.60;99.90;;;;;;5050017;28;20040;-62
2022/03/14 02:15:47;;;;;;;1.27;0.70;;;10.50;99.90;;;;;;5050071;28;20496;-61
2022/03/14 02:18:13;;;;;;;4.15;1.33;;;10.50;99.90;;;;;;5049375;28;20036;-61
2022/03/14 02:20:38;;;;;;;2.03;0.93;;;10.50;99.90;;;;;;5049692;28;20041;-62
2022/03/14 02:23:04;;;;;;;1.55;0.70;;;10.50;99.90;;;;;;5049268;28;20040;-61
2022/03/14 02:25:32;;;;;;;1.48;0.70;;;10.50;99.90;;;;;;5050145;28;20132;-61
2022/03/14 02:27:58;;;;;;;2.08;0.80;;;10.50;99.90;;;;;;5049854;28;20120;-61
2022/03/14 02:30:23;;;;;;;1.15;0.70;;;10.60;99.90;;;;;;5047546;28;20111;-61
2022/03/14 02:32:49;;;;;;;1.80;0.82;;;10.60;99.90;;;;;;5049330;28;20053;-62
2022/03/14 02:35:15;;;;;;;2.05;1.00;;;10.60;99.90;;;;;;5048723;28;20040;-62
2022/03/14 02:37:41;;;;;;;2.08;1.00;;;10.60;99.90;;;;;;5047115;28;20085;-61
2022/03/14 02:40:07;;;;;;;1.17;0.47;;;10.60;99.90;;;;;;5048342;28;20519;-61
2022/03/14 02:42:33;;;;;;;2.10;0.77;;;10.70;99.90;;;;;;5048641;28;20057;-61
2022/03/14 02:45:00;;;;;;;2.13;1.10;;;10.70;99.90;;;;;;5048649;28;20068;-61
2022/03/14 02:47:26;;;;;;;1.83;0.98;;;10.60;99.90;;;;;;5048696;28;20449;-62
2022/03/14 02:49:51;;;;;;;1.45;0.70;;;10.60;99.90;;;;;;5048385;28;20136;-63
2022/03/14 02:52:17;;;;;;;3.05;0.95;;;10.60;99.90;;;;;;5048719;28;20400;-61
2022/03/14 02:54:42;;;;;;;2.80;1.20;;;10.50;99.90;;;;;;5048522;28;20041;-61
2022/03/14 02:57:09;;;;;;;2.20;1.20;;;10.60;99.90;;;;;;5048359;28;20044;-63
2022/03/14 02:59:35;;;;;;;2.05;0.80;;;10.60;99.90;;;;;;5048807;28;20032;-61
2022/03/14 03:02:00;;;;;;;1.92;0.82;;;10.60;99.90;;;;;;5048237;28;20036;-62
2022/03/14 03:04:26;;;;;;;1.95;1.02;;;10.60;99.90;;;;;;5048257;28;20516;-61
2022/03/14 03:06:54;;;;;;;2.70;0.95;;;10.50;99.90;;;;;;5048760;28;20033;-61
2022/03/14 03:09:20;;;;;;;3.85;0.82;;;10.60;99.90;;;;;;5048301;28;20040;-64
2022/03/14 03:11:46;;;;;;;2.33;1.20;;;10.60;99.90;;;;;;5048582;28;20036;-61
2022/03/14 03:14:12;;;;;;;1.83;1.17;;;10.50;99.90;;;;;;5047851;28;20033;-61
2022/03/14 03:16:38;;;;;;;3.78;0.88;;;10.50;99.90;;;;;;5048687;28;20104;-60
2022/03/14 03:19:06;;;;;;;1.40;0.90;;;10.60;99.90;;;;;;5048033;28;20056;-61
2022/03/14 03:21:34;;;;;;;1.17;0.80;;;10.50;99.90;;;;;;5048344;28;20033;-62
2022/03/14 03:24:00;;;;;;;2.38;1.17;;;10.50;99.90;;;;;;5050374;28;20112;-62
2022/03/14 03:26:25;;;;;;;2.45;1.27;;;10.50;99.90;;;;;;5052196;28;20071;-61
2022/03/14 03:28:51;;;;;;;3.95;1.65;;;10.50;99.90;;;;;;5052287;28;20118;-61
2022/03/14 03:31:18;;;;;;;2.88;1.20;;;10.50;99.90;;;;;;5051233;28;20049;-61
2022/03/14 03:33:45;;;;;;;3.58;1.60;;;10.50;99.90;;;;;;5050422;28;20405;-62
2022/03/14 03:36:11;;;;;;;3.13;1.52;;;10.50;99.90;;;;;;5051598;28;20512;-62
2022/03/14 03:38:36;;;;;;;3.05;1.25;;;10.50;99.90;;;;;;5051616;28;20036;-61
2022/03/14 03:41:03;;;;;;;3.67;1.45;;;10.40;99.90;;;;;;5051213;28;20048;-62
2022/03/14 03:43:29;;;;;;;2.38;1.50;;;10.40;99.90;;;;;;5051468;28;20083;-62
2022/03/14 03:45:55;;;;;;;2.45;1.30;;;10.40;99.90;;;;;;5051862;28;20045;-61
2022/03/14 03:48:21;;;;;;;3.03;1.63;;;10.40;99.90;;;;;;5051229;28;20037;-61
2022/03/14 03:50:47;;;;;;;3.35;1.60;;;10.30;99.90;;;;;;5050241;28;20589;-61
2022/03/14 03:53:13;;;;;;;4.97;1.80;;;10.40;99.90;;;;;;5051172;28;20036;-61
2022/03/14 03:55:39;;;;;;;3.00;1.40;;;10.30;99.90;;;;;;5051614;28;20037;-63
2022/03/14 03:58:05;;;;;;;3.72;1.83;;;10.30;99.90;;;;;;5050976;28;20032;-61
2022/03/14 04:00:31;;;;;;;3.85;1.88;;;10.30;99.90;;;;;;5051245;28;20033;-62
2022/03/14 04:02:57;;;;;;;3.17;1.77;;;10.20;99.90;;;;;;5051527;28;20045;-62
2022/03/14 04:05:23;;;;;;;5.65;2.20;;;10.30;99.90;;;;;;5049850;28;20039;-63
2022/03/14 04:07:49;;;;;;;3.72;2.20;;;10.30;99.90;;;;;;5050131;28;20057;-62
2022/03/14 04:10:15;;;;;;;3.92;2.03;;;10.20;99.90;;;;;;5050723;28;20174;-61
2022/03/14 04:12:44;;;;;;;4.90;2.40;;;10.20;99.90;;;;;;5049926;28;20037;-61
2022/03/14 04:15:10;;;;;;;3.53;2.08;;;10.20;99.90;;;;;;5047066;28;20514;-62
2022/03/14 04:17:41;;;;;;;3.97;2.40;;;10.20;99.90;;;;;;5051435;28;20036;-61
2022/03/14 04:20:09;;;;;;;5.72;3.38;;;10.20;99.90;;;;;;5046499;28;20029;-61
2022/03/14 04:22:36;;;;;;;5.03;3.15;;;10.10;99.90;;;;;;5051272;28;20548;-61
2022/03/14 04:25:03;;;;;;;6.60;3.78;;;10.00;99.90;;;;;;5050622;28;20029;-62
2022/03/14 04:27:28;;;;;;;6.07;3.47;;;9.90;99.90;;;;;;5050726;28;20041;-61
2022/03/14 04:29:56;;;;;;;6.15;3.33;;;9.80;99.90;;;;;;5050836;28;20450;-63
2022/03/14 04:32:23;;;;;;;7.15;4.10;;;9.60;99.90;;;;;;5050366;28;20035;-62
2022/03/14 04:34:49;;;;;;;9.00;3.85;;;9.60;99.90;;;;;;5050832;28;20715;-62
2022/03/14 04:37:15;;;;;;;7.47;4.18;;;9.50;99.90;;;;;;5049745;28;20036;-62
2022/03/14 04:39:41;;;;;;;7.25;4.20;;;9.40;99.90;;;;;;5050877;28;20033;-61
2022/03/14 04:42:07;;;;;;;7.82;4.50;;;9.40;99.90;;;;;;5050162;28;20025;-61
2022/03/14 04:44:34;;;;;;;8.68;5.20;;;9.40;99.90;;;;;;5050613;28;20068;-63
2022/03/14 04:46:59;;;;;;;8.82;4.38;;;9.40;99.90;;;;;;5050115;28;20063;-61
2022/03/14 04:49:26;;;;;;;8.48;4.35;;;9.40;99.90;;;;;;5050573;28;20557;-61
2022/03/14 04:51:54;;;;;;;9.40;5.57;;;9.30;99.90;;;;;;5048771;28;20112;-61
2022/03/14 04:54:20;;;;;;;8.82;4.97;;;9.30;99.90;;;;;;5050042;28;20029;-61
2022/03/14 04:56:45;;;;;;;9.23;5.18;;;9.30;99.90;;;;;;5050558;28;20028;-62
2022/03/14 04:59:11;;;;;;;7.93;5.00;;;9.20;99.90;;;;;;5048617;28;20037;-62
2022/03/14 05:01:37;;;;;;;8.23;4.95;;;9.20;99.90;;;;;;5050259;28;20060;-61
2022/03/14 05:04:03;;;;;;;9.68;4.90;;;9.20;99.90;;;;;;5049839;28;20055;-63
2022/03/14 05:06:29;;;;;;;10.15;5.18;;;9.20;99.90;;;;;;5050257;28;20568;-61
2022/03/14 05:08:54;;;;;;;10.70;5.68;;;9.20;99.90;;;;;;5049006;28;20037;-62
2022/03/14 05:11:20;;;;;;;10.30;6.38;;;9.20;99.90;;;;;;5049572;28;20120;-60
2022/03/14 05:13:45;;;;;;;9.60;5.07;;;9.20;99.90;;;;;;5050120;28;20604;-61
2022/03/14 05:16:11;;;;;;;9.57;5.38;;;9.20;99.90;;;;;;5049587;28;20033;-62
2022/03/14 05:18:38;;;;;;;9.70;5.93;;;9.20;99.90;;;;;;5049916;28;20057;-61
2022/03/14 05:21:03;;;;;;;8.60;5.13;;;9.20;99.90;;;;;;5045201;28;20041;-62
2022/03/14 05:23:30;;;;;;;10.98;5.97;;;9.20;99.90;;;;;;5049816;28;20058;-63
2022/03/14 05:25:55;;;;;;;11.05;6.13;;;9.20;99.90;;;;;;5049911;28;20041;-61
2022/03/14 05:28:22;;;;;;;12.40;5.80;;;9.10;99.90;;;;;;5049439;28;20086;-61
2022/03/14 05:30:47;;;;;;;14.27;5.65;;;9.10;99.90;;;;;;5047579;28;20140;-61
2022/03/14 05:33:13;;;;;;;18.83;6.97;;;9.10;99.90;;;;;;5042795;28;20374;-61
2022/03/14 05:35:39;;;;;;;11.00;5.60;;;9.10;99.90;;;;;;5044898;28;20029;-62
2022/03/14 05:38:04;;;;;;;12.10;6.65;;;9.00;99.90;;;;;;5044763;28;20136;-63
2022/03/14 05:40:30;;;;;;;13.65;6.57;;;9.00;99.90;;;;;;5046099;28;20114;-62
2022/03/14 05:42:56;;;;;;;12.88;6.47;;;9.00;99.90;;;;;;5041626;28;20171;-60
2022/03/14 05:45:22;;;;;;;14.30;6.43;;;8.90;99.90;;;;;;5048788;28;20025;-61
2022/03/14 05:47:48;;;;;;;15.07;6.85;;;8.90;99.90;;;;;;5049310;28;20039;-61
2022/03/14 05:50:15;;;;;;;15.85;7.97;;;8.90;99.90;;;;;;5048688;28;20051;-64
2022/03/14 05:52:41;;;;;;;14.40;6.93;;;8.80;99.90;;;;;;5048779;28;20033;-63
2022/03/14 05:55:08;;;;;;;15.52;7.22;;;8.80;99.90;;;;;;5045219;28;20040;-61
2022/03/14 05:57:34;;;;;;;13.63;7.10;;;8.80;99.90;;;;;;5045568;28;20039;-62
2022/03/14 06:00:00;;;;;;;12.95;6.53;;;8.80;99.90;;;;;;5045932;28;20031;-61
2022/03/14 06:02:25;;;;;;;14.40;6.35;;;8.80;99.90;;;;;;5044568;28;20033;-62
2022/03/14 06:04:53;;;;;;;13.70;5.72;;;8.80;99.90;;;;;;5045672;28;20041;-61
2022/03/14 06:07:21;;;;;;;13.52;6.30;;;8.80;99.90;;;;;;5042133;28;20521;-61
2022/03/14 06:09:47;;;;;;;13.70;5.25;;;8.80;99.90;;;;;;5045395;28;20500;-62
2022/03/14 06:12:26;;;;;;;10.38;5.28;;;8.80;99.90;;;;;;5044493;28;20723;-61
2022/03/14 06:14:53;;;;;;;16.65;6.05;;;8.80;99.90;;;;;;5045496;28;20083;-61
2022/03/14 06:17:19;;;;;;;11.77;5.93;;;8.80;99.90;;;;;;5045251;28;20481;-61
2022/03/14 06:19:45;;;;;;;13.32;5.50;;;8.80;99.90;;;;;;5045573;28;20397;-61
2022/03/14 06:22:10;;;;;;;13.55;5.05;;;8.80;99.90;;;;;;5043816;28;20029;-61
2022/03/14 06:24:36;;;;;;;11.25;4.70;;;8.80;99.90;;;;;;5045724;28;20028;-63
2022/03/14 06:27:02;;;;;;;10.07;4.75;;;8.70;99.90;;;;;;5045140;28;20052;-62
2022/03/14 06:29:28;;;;;;;11.40;5.10;;;8.80;99.90;;;;;;5045772;28;20044;-62
2022/03/14 06:31:54;;;;;;;10.95;6.30;;;8.80;99.90;;;;;;5046015;28;20120;-62
2022/03/14 06:34:19;;;;;;;12.73;4.90;;;8.80;99.90;;;;;;5045466;28;20044;-61
2022/03/14 06:36:45;;;;;;;12.10;4.70;;;8.80;99.90;;;;;;5046213;28;20044;-61
2022/03/14 06:39:11;;;;;;;13.52;5.40;;;8.80;99.90;;;;;;5044417;28;20037;-61
2022/03/14 06:41:38;;;;;;;12.82;5.70;;;8.80;99.90;;;;;;5045684;28;20037;-61
2022/03/14 06:44:04;;;;;;;9.60;5.63;;;8.80;99.90;;;;;;5042982;28;20059;-61
2022/03/14 06:46:29;;;;;;;9.70;5.25;;;8.80;99.90;;;;;;5045956;28;20025;-62
2022/03/14 06:48:55;;;;;;;9.98;4.85;;;8.80;99.90;;;;;;5044969;28;20052;-61
2022/03/14 06:51:21;;;;;;;10.32;5.53;;;8.80;99.90;;;;;;5044982;28;20092;-61
2022/03/14 06:53:48;;;;;;;11.32;5.70;;;8.80;99.90;;;;;;5045903;28;20056;-61
2022/03/14 06:56:16;;;;;;;10.40;5.13;;;8.80;99.90;;;;;;5044860;28;20124;-62
2022/03/14 06:58:42;;;;;;;7.95;4.43;;;8.80;99.90;;;;;;5048911;28;20033;-62
2022/03/14 07:01:08;;;;;;;14.13;5.70;;;8.80;99.90;;;;;;5049285;28;20435;-62
2022/03/14 07:03:33;;;;;;;11.25;5.88;;;8.90;99.90;;;;;;5049551;28;20037;-60
2022/03/14 07:05:59;;;;;;;9.35;5.25;;;8.90;99.90;;;;;;5049794;28;20090;-61
2022/03/14 07:08:25;;;;;;;10.55;5.68;;;8.90;99.90;;;;;;5052786;28;20091;-62
2022/03/14 07:10:50;;;;;;;12.00;5.85;;;9.00;99.90;;;;;;5051859;28;20492;-60
2022/03/14 07:13:16;;;;;;;9.52;5.03;;;9.00;99.90;;;;;;5046817;28;20037;-61
2022/03/14 07:15:41;;;;;;;9.27;4.72;;;9.00;99.90;;;;;;5050955;28;20071;-62
2022/03/14 07:18:07;;;;;;;8.45;5.00;;;9.10;99.90;;;;;;5045714;28;20045;-62
2022/03/14 07:20:33;;;;;;;11.50;4.70;;;9.10;99.90;;;;;;5049334;28;20041;-62
2022/03/14 07:23:05;;;;;;;11.48;6.00;;;9.10;99.90;;;;;;5050062;28;20032;-62
2022/03/14 07:25:32;;;;;;;11.13;4.90;;;9.20;99.90;;;;;;5050943;28;20036;-62
2022/03/14 07:28:01;;;;;;;9.68;4.80;;;9.20;99.90;;;;;;5048639;28;20428;-62
2022/03/14 07:30:27;;;;;;;10.73;4.50;;;9.20;99.90;;;;;;5050754;28;20464;-61
2022/03/14 07:32:53;;;;;;;9.15;4.53;;;9.20;99.90;;;;;;5049772;28;20030;-61
2022/03/14 07:35:19;;;;;;;9.30;4.93;;;9.30;99.90;;;;;;5046059;28;20107;-61
2022/03/14 07:37:45;;;;;;;9.20;4.82;;;9.30;99.90;;;;;;5046867;28;20126;-62
2022/03/14 07:40:12;;;;;;;12.38;4.68;;;9.40;99.90;;;;;;5048500;28;20532;-63
2022/03/14 07:42:45;;;;;;;8.38;4.72;;;9.40;99.90;;;;;;5047863;28;20479;-61
2022/03/14 07:45:13;;;;;;;12.15;5.30;;;9.50;99.90;;;;;;5047219;28;20045;-62
2022/03/14 07:47:39;;;;;;;9.98;5.00;;;9.60;99.90;;;;;;5046454;28;20078;-60
2022/03/14 07:50:07;;;;;;;7.78;4.88;;;9.60;99.90;;;;;;5047798;28;20508;-61
2022/03/14 07:52:33;;;;;;;14.68;5.72;;;9.60;99.90;;;;;;5048936;28;20161;-61
2022/03/14 07:54:59;;;;;;;14.98;5.53;;;9.70;99.90;;;;;;5048942;28;20029;-62
2022/03/14 07:57:25;;;;;;;18.60;7.20;;;9.80;99.90;;;;;;5048095;28;20056;-62
2022/03/14 07:59:51;;;;;;;18.73;7.32;;;9.90;99.90;;;;;;5049530;28;20401;-62
2022/03/14 08:02:17;;;;;;;25.30;8.57;;;10.00;99.90;;;;;;5050397;28;20443;-62
2022/03/14 08:04:43;;;;;;;18.60;9.23;;;10.00;99.90;;;;;;5048338;28;20155;-61
2022/03/14 08:07:08;;;;;;;22.60;10.63;;;10.10;99.90;;;;;;5050210;28;20127;-61
2022/03/14 08:09:34;;;;;;;26.23;11.82;;;10.10;99.90;;;;;;5047785;28;20039;-63
2022/03/14 08:12:03;;;;;;;21.05;10.23;;;10.20;99.90;;;;;;5048082;28;20147;-62
2022/03/14 08:14:29;;;;;;;27.08;10.77;;;10.20;99.90;;;;;;5051264;28;20094;-62
2022/03/14 08:16:54;;;;;;;29.42;13.00;;;10.20;99.90;;;;;;5050775;28;20062;-63
2022/03/14 08:19:20;;;;;;;32.28;14.52;;;10.30;99.90;;;;;;5047964;28;20440;-60
2022/03/14 08:21:47;;;;;;;32.88;14.50;;;10.20;99.90;;;;;;5048779;28;20036;-61
2022/03/14 08:24:13;;;;;;;32.67;14.32;;;10.20;99.90;;;;;;5048531;28;20408;-63
2022/03/14 08:26:39;;;;;;;29.65;13.57;;;10.30;99.90;;;;;;5048303;28;20102;-62
2022/03/14 08:29:05;;;;;;;30.98;14.13;;;10.40;99.90;;;;;;5047214;28;20025;-62
2022/03/14 08:31:32;;;;;;;31.95;14.02;;;10.40;99.90;;;;;;5047710;28;20040;-62
2022/03/14 08:33:58;;;;;;;29.92;13.32;;;10.40;99.90;;;;;;5047410;28;20036;-61
2022/03/14 08:36:24;;;;;;;31.95;14.30;;;10.40;99.90;;;;;;5048103;28;20032;-63
2022/03/14 08:38:49;;;;;;;31.42;14.82;;;10.40;99.90;;;;;;5047698;28;20101;-62
2022/03/14 08:41:18;;;;;;;28.95;13.15;;;10.40;99.90;;;;;;5049608;28;20049;-62
2022/03/14 08:43:45;;;;;;;27.40;12.75;;;10.40;99.90;;;;;;5049442;28;20551;-61
2022/03/14 08:46:11;;;;;;;26.92;13.43;;;10.30;99.90;;;;;;5049081;28;20041;-63
2022/03/14 08:48:37;;;;;;;28.13;12.20;;;10.30;99.90;;;;;;5049695;28;20111;-61
2022/03/14 08:51:03;;;;;;;27.92;11.75;;;10.40;99.90;;;;;;5046751;28;20140;-61
2022/03/14 08:53:29;;;;;;;27.02;11.85;;;10.40;99.90;;;;;;5049142;28;20072;-61
2022/03/14 08:55:55;;;;;;;26.15;11.88;;;10.40;99.90;;;;;;5049140;28;20041;-62
2022/03/14 08:58:21;;;;;;;24.50;11.55;;;10.50;99.90;;;;;;5046452;28;20040;-63
2022/03/14 09:00:47;;;;;;;27.65;12.93;;;10.50;99.90;;;;;;5047429;28;20040;-63
2022/03/14 09:03:13;;;;;;;26.58;11.85;;;10.60;99.90;;;;;;5048295;28;20040;-62
2022/03/14 09:05:38;;;;;;;29.45;12.55;;;10.60;99.90;;;;;;5048150;28;20080;-61
2022/03/14 09:08:04;;;;;;;24.95;11.05;;;10.70;99.90;;;;;;5045979;28;20048;-61
2022/03/14 09:10:36;;;;;;;19.83;10.23;;;10.70;99.90;;;;;;5050170;28;20043;-63
2022/03/14 09:13:03;;;;;;;23.55;10.60;;;10.70;99.90;;;;;;5046471;28;20439;-62
2022/03/14 09:15:29;;;;;;;26.35;11.32;;;10.70;99.90;;;;;;5047232;28;20040;-60
2022/03/14 09:17:59;;;;;;;18.13;8.85;;;10.90;99.90;;;;;;5047958;28;20040;-62
2022/03/14 09:20:25;;;;;;;23.67;9.80;;;10.90;99.90;;;;;;5047451;28;20167;-61
2022/03/14 09:22:51;;;;;;;26.90;10.48;;;11.00;99.90;;;;;;5049460;28;20044;-62
2022/03/14 09:25:19;;;;;;;24.17;10.65;;;11.00;99.90;;;;;;5046886;28;20029;-61
2022/03/14 09:27:45;;;;;;;18.58;8.40;;;11.10;99.90;;;;;;5049060;28;20392;-62
2022/03/14 09:30:12;;;;;;;16.30;8.18;;;11.20;99.90;;;;;;5046571;28;20495;-62
2022/03/14 09:32:39;;;;;;;16.45;7.75;;;11.10;99.90;;;;;;5049527;28;20086;-61
2022/03/14 09:35:07;;;;;;;13.38;6.57;;;11.10;99.90;;;;;;5047255;28;20041;-62
2022/03/14 09:37:36;;;;;;;16.02;6.43;;;11.10;99.90;;;;;;5048596;28;20477;-62
2022/03/14 09:40:05;;;;;;;13.55;5.07;;;11.20;99.90;;;;;;5046025;28;20547;-63
2022/03/14 09:42:35;;;;;;;13.70;5.57;;;11.40;99.90;;;;;;5050308;28;20033;-61
2022/03/14 09:45:02;;;;;;;;;;;11.50;99.90;;;;;;5046330;28;20037;-63
2022/03/14 09:47:29;;;;;;;11.23;4.85;;;11.50;99.90;;;;;;5048465;28;20381;-61
2022/03/14 09:49:57;;;;;;;15.02;5.53;;;11.60;99.90;;;;;;5047279;28;20033;-63
2022/03/14 09:52:24;;;;;;;12.73;6.95;;;11.70;99.90;;;;;;5048249;28;20022;-62
2022/03/14 09:54:50;;;;;;;20.65;8.73;;;11.80;99.90;;;;;;5046670;28;20523;-62
2022/03/14 09:57:16;;;;;;;16.63;7.28;;;11.70;99.90;;;;;;5047981;28;20029;-62
2022/03/14 09:59:42;;;;;;;16.48;7.75;;;11.80;99.90;;;;;;5046415;28;20087;-61
2022/03/14 10:02:12;;;;;;;15.43;7.30;;;11.80;99.90;;;;;;5045865;28;20507;-61
2022/03/14 10:04:39;;;;;;;20.88;6.55;;;11.70;99.90;;;;;;5048160;28;20069;-60
2022/03/14 10:07:06;;;;;;;11.35;4.70;;;11.70;99.90;;;;;;5045749;28;20545;-63
2022/03/14 10:09:34;;;;;;;13.70;4.07;;;11.70;99.90;;;;;;5047944;28;20719;-63
2022/03/14 10:12:00;;;;;;;8.55;4.03;;;11.60;99.90;;;;;;5048046;28;20036;-64
2022/03/14 10:14:25;;;;;;;8.18;4.22;;;11.50;99.90;;;;;;5048277;28;20029;-62
2022/03/14 10:16:55;;;;;;;12.30;5.10;;;11.50;99.90;;;;;;5046574;28;20493;-62
2022/03/14 10:19:29;;;;;;;10.93;4.67;;;11.50;99.90;;;;;;5047620;28;20044;-61
2022/03/14 10:21:55;;;;;;;10.75;4.20;;;11.50;99.90;;;;;;5041771;28;20325;-62
2022/03/14 10:24:25;;;;;;;10.75;4.65;;;11.50;99.90;;;;;;5048711;28;20033;-60
2022/03/14 10:26:54;;;;;;;13.52;4.68;;;11.40;99.90;;;;;;5045060;28;20401;-62
2022/03/14 10:29:25;;;;;;;8.30;3.67;;;11.50;99.90;;;;;;5050277;28;20511;-61
2022/03/14 10:31:56;;;;;;;15.65;5.35;;;11.60;99.90;;;;;;5048922;28;20037;-62
2022/03/14 10:34:23;;;;;;;11.27;5.43;;;11.70;99.90;;;;;;5053157;28;20033;-61
2022/03/14 10:36:51;;;;;;;11.98;5.65;;;11.70;99.90;;;;;;5053772;28;20064;-63
2022/03/14 10:39:26;;;;;;;17.88;5.85;;;11.60;99.90;;;;;;5052278;28;20163;-61
2022/03/14 10:42:09;;;;;;;16.20;4.75;;;11.60;99.90;;;;;;5049910;28;20844;-61
2022/03/14 10:44:36;;;;;;;14.60;5.20;;;11.60;99.90;;;;;;5048757;28;20409;-61
2022/03/14 10:47:05;;;;;;;8.63;4.00;;;11.50;99.90;;;;;;5047884;28;20045;-67
2022/03/14 10:49:34;;;;;;;10.15;4.85;;;11.60;99.90;;;;;;5049974;28;20684;-62
2022/03/14 10:52:02;;;;;;;15.30;5.05;;;11.70;99.90;;;;;;5050793;28;20040;-61
2022/03/14 10:54:28;;;;;;;11.88;4.07;;;11.70;99.90;;;;;;5050009;28;20111;-62
2022/03/14 10:57:29;;;;;;;13.25;4.40;;;11.90;99.90;;;;;;5049865;28;20489;-62
2022/03/14 10:59:56;;;;;;;13.50;4.28;;;12.10;99.90;;;;;;5048475;28;20041;-61
2022/03/14 11:02:24;;;;;;;10.80;5.18;;;12.40;99.90;;;;;;5051824;28;20039;-62
2022/03/14 11:04:51;;;;;;;17.45;6.30;;;12.60;99.90;;;;;;5050666;28;20036;-61
2022/03/14 11:07:19;;;;;;;11.90;5.63;;;12.70;99.90;;;;;;5050887;28;20471;-61
2022/03/14 11:10:11;;;;;;;12.00;4.18;;;12.70;99.90;;;;;;5048365;28;20037;-62
2022/03/14 11:12:37;;;;;;;8.07;4.15;;;12.90;99.90;;;;;;5045299;28;20037;-62
2022/03/14 11:15:09;;;;;;;13.32;5.22;;;12.90;99.90;;;;;;5050509;28;20044;-64
2022/03/14 11:17:36;;;;;;;15.95;6.25;;;12.80;99.90;;;;;;5049801;28;20475;-62
2022/03/14 11:20:02;;;;;;;16.30;6.53;;;12.80;99.90;;;;;;5049790;28;20025;-61
2022/03/14 11:22:30;;;;;;;12.80;5.05;;;12.90;99.90;;;;;;5049294;28;20071;-63
2022/03/14 11:24:59;;;;;;;10.18;3.80;;;12.90;99.90;;;;;;5050291;28;20075;-63
2022/03/14 11:27:29;;;;;;;8.52;3.58;;;12.90;99.90;;;;;;5050237;28;20443;-61
2022/03/14 11:30:04;;;;;;;9.73;3.42;;;13.00;99.90;;;;;;5050419;28;21406;-60
2022/03/14 11:32:29;;;;;;;12.30;3.67;;;13.00;99.90;;;;;;5049061;28;20053;-61
2022/03/14 11:34:55;;;;;;;8.63;4.35;;;13.10;99.90;;;;;;5048578;28;20037;-62
2022/03/14 11:37:21;;;;;;;14.38;4.32;;;13.20;99.90;;;;;;5048257;28;20385;-64
2022/03/14 11:39:47;;;;;;;12.80;4.75;;;13.40;99.90;;;;;;5049315;28;20040;-62
2022/03/14 11:42:15;;;;;;;9.40;3.40;;;13.50;99.90;;;;;;5051903;28;20368;-63
2022/03/14 11:44:43;;;;;;;7.38;3.33;;;13.40;99.90;;;;;;5049243;28;20056;-61
2022/03/14 11:47:10;;;;;;;10.07;3.35;;;13.40;99.90;;;;;;5047481;28;20036;-62
2022/03/14 11:49:36;;;;;;;6.90;2.63;;;13.30;99.90;;;;;;5049217;28;20029;-62
2022/03/14 11:52:24;;;;;;;8.10;2.72;;;13.20;99.90;;;;;;5047587;28;20140;-61
2022/03/14 11:54:58;;;;;;;13.90;4.00;;;13.10;99.90;;;;;;5048985;28;20056;-63
2022/03/14 11:57:39;;;;;;;10.80;3.40;;;13.00;99.90;;;;;;5048465;28;20029;-60
2022/03/14 12:00:25;;;;;;;11.13;3.70;;;13.00;99.90;;;;;;5048681;28;20409;-60
2022/03/14 12:02:56;;;;;;;10.73;2.97;;;13.20;99.90;;;;;;5049676;28;20083;-62
2022/03/14 12:05:31;;;;;;;7.05;2.50;;;13.40;99.90;;;;;;5048390;28;20036;-62
2022/03/14 12:07:58;;;;;;;11.88;3.13;;;13.50;99.90;;;;;;5048152;28;20047;-62
2022/03/14 12:10:27;;;;;;;7.63;3.83;;;13.40;99.90;;;;;;5049455;28;20695;-62
2022/03/14 12:12:53;;;;;;;9.55;3.10;;;13.40;99.90;;;;;;5049509;28;20029;-63
2022/03/14 12:15:43;;;;;;;9.80;2.92;;;13.30;99.90;;;;;;5048390;28;20040;-62
2022/03/14 12:18:26;;;;;;;9.15;2.95;;;13.20;99.90;;;;;;5048989;28;20036;-61
2022/03/14 12:20:56;;;;;;;5.97;2.95;;;13.30;99.90;;;;;;5048873;28;20668;-63
2022/03/14 12:23:30;;;;;;;10.35;3.10;;;13.30;99.90;;;;;;5048857;28;20029;-61
2022/03/14 12:26:00;;;;;;;8.60;2.85;;;13.40;99.90;;;;;;5048841;28;20037;-61
2022/03/14 12:28:33;;;;;;;6.18;2.42;;;13.60;99.90;;;;;;5050060;28;20113;-62
2022/03/14 12:31:04;;;;;;;10.50;3.60;;;13.50;99.90;;;;;;5047904;28;20072;-64
2022/03/14 12:33:37;;;;;;;11.77;3.03;;;13.40;99.90;;;;;;5049049;28;20041;-61
2022/03/14 12:36:22;;;;;;;8.52;3.15;;;13.40;99.90;;;;;;5048676;28;20040;-66
2022/03/14 12:39:06;;;;;;;9.00;3.05;;;13.30;99.90;;;;;;5050261;28;20095;-63
2022/03/14 12:41:36;;;;;;;11.60;2.88;;;13.30;99.90;;;;;;5047082;28;20041;-61
2022/03/14 12:44:25;;;;;;;11.82;3.08;;;13.40;99.90;;;;;;5049102;28;20063;-64